Time;durP1;ratioP1;P1;durP2;ratioP2;P2;SDS_P1;SDS_P2;PMS_P1;PMS_P2;Temp;Humidity;BMP_temperature;BMP_pressure;BME280_temperature;BME280_humidity;BME280_pressure;Samples;Min_cycle;Max_cycle;Signal;HPM_P1;HPM_P2
2023/05/24 00:00:28;;;;;;;;;;;18.30;93.60;;;;;;5094477;28;19981;-64
2023/05/24 00:02:54;;;;;;;;;;;18.20;94.10;;;;;;5094638;28;19981;-63
2023/05/24 00:05:19;;;;;;;;;;;18.20;94.20;;;;;;5094335;28;20049;-64
2023/05/24 00:07:45;;;;;;;;;;;18.20;93.70;;;;;;5094256;28;20007;-64
2023/05/24 00:10:10;;;;;;;;;;;18.20;93.30;;;;;;5094139;28;20355;-64
2023/05/24 00:12:36;;;;;;;;;;;18.20;93.30;;;;;;5094368;28;19985;-64
2023/05/24 00:15:02;;;;;;;;;;;18.20;93.40;;;;;;5094285;28;19981;-64
2023/05/24 00:17:29;;;;;;;;;;;18.20;93.70;;;;;;5094134;28;20020;-64
2023/05/24 00:19:54;;;;;;;;;;;18.00;94.50;;;;;;5094529;28;19985;-63
2023/05/24 00:22:20;;;;;;;;;;;18.00;94.70;;;;;;5094299;28;19985;-63
2023/05/24 00:24:46;;;;;;;;;;;18.00;94.40;;;;;;5094063;28;20012;-64
2023/05/24 00:27:12;;;;;;;;;;;18.00;94.40;;;;;;5094072;28;20420;-62
2023/05/24 00:29:38;;;;;;;;;;;18.00;94.40;;;;;;5094239;28;19981;-63
2023/05/24 00:32:04;;;;;;;;;;;18.00;94.60;;;;;;5093966;28;20351;-64
2023/05/24 00:34:29;;;;;;;;;;;18.00;94.40;;;;;;5094032;28;20401;-63
2023/05/24 00:36:56;;;;;;;;;;;18.00;94.60;;;;;;5093799;28;20392;-63
2023/05/24 00:39:22;;;;;;;;;;;17.90;94.80;;;;;;5093917;28;19988;-64
2023/05/24 00:41:47;;;;;;;;;;;17.70;95.40;;;;;;5093899;28;19984;-63
2023/05/24 00:44:13;;;;;;;;;;;17.60;95.40;;;;;;5093582;28;20059;-64
2023/05/24 00:46:39;;;;;;;;;;;17.60;95.40;;;;;;5093899;28;19985;-63
2023/05/24 00:49:04;;;;;;;;;;;17.60;95.20;;;;;;5093827;28;19991;-64
2023/05/24 00:51:32;;;;;;;;;;;17.70;95.20;;;;;;5093655;28;19989;-65
2023/05/24 00:53:58;;;;;;;;;;;17.60;95.00;;;;;;5093752;28;19997;-64
2023/05/24 00:56:25;;;;;;;;;;;17.60;95.20;;;;;;5093730;28;19981;-64
2023/05/24 00:58:53;;;;;;;;;;;17.60;94.50;;;;;;5094019;28;20059;-64
2023/05/24 01:01:19;;;;;;;;;;;17.60;94.40;;;;;;5093718;28;19985;-64
2023/05/24 01:03:45;;;;;;;;;;;17.50;94.50;;;;;;5093936;28;19991;-63
2023/05/24 01:06:11;;;;;;;;;;;17.50;94.60;;;;;;5093448;28;20344;-63
2023/05/24 01:08:37;;;;;;;;;;;17.50;95.20;;;;;;5093671;28;20028;-64
2023/05/24 01:11:12;;;;;;;;;;;17.40;95.50;;;;;;5093590;28;20031;-64
2023/05/24 01:13:47;;;;;;;;;;;17.40;95.60;;;;;;5093614;28;20030;-63
2023/05/24 01:16:18;;;;;;;;;;;17.40;95.50;;;;;;5093501;28;19980;-63
2023/05/24 01:18:46;;;;;;;;;;;17.30;95.60;;;;;;5093589;28;19981;-63
2023/05/24 01:21:12;;;;;;;;;;;17.30;95.40;;;;;;5094240;28;19981;-63
2023/05/24 01:23:57;;;;;;;;;;;17.30;95.00;;;;;;5097505;28;19989;-65
2023/05/24 01:26:41;;;;;;;;;;;17.30;94.90;;;;;;5097595;28;20038;-63
2023/05/24 01:29:07;;;;;;;;;;;17.30;94.90;;;;;;5097471;28;20042;-64
2023/05/24 01:31:33;;;;;;;;;;;17.30;95.20;;;;;;5097407;28;19985;-63
2023/05/24 01:33:58;;;;;;;;;;;17.30;95.20;;;;;;5097227;28;19984;-64
2023/05/24 01:36:24;;;;;;;;;;;17.30;94.90;;;;;;5097306;28;20390;-63
2023/05/24 01:38:50;;;;;;;;;;;17.20;94.80;;;;;;5097399;28;19982;-64
2023/05/24 01:41:26;;;;;;;;;;;17.20;94.70;;;;;;5097577;28;19992;-63
2023/05/24 01:43:57;;;;;;;;;;;17.20;94.70;;;;;;5096953;28;20027;-64
2023/05/24 01:46:34;;;;;;;;;;;17.10;94.90;;;;;;5097167;28;20453;-64
2023/05/24 01:49:08;;;;;;;;;;;17.10;95.10;;;;;;5096838;28;19988;-63
2023/05/24 01:51:42;;;;;;;;;;;17.00;95.40;;;;;;5097106;28;19981;-63
2023/05/24 01:54:09;;;;;;;;;;;17.00;95.50;;;;;;5096990;28;19981;-64
2023/05/24 01:56:35;;;;;;;;;;;17.00;95.40;;;;;;5096921;28;19992;-64
2023/05/24 01:59:01;;;;;;;;;;;17.00;95.60;;;;;;5097012;28;20493;-63
2023/05/24 02:01:27;;;;;;;;;;;17.00;95.60;;;;;;5096766;28;19989;-63
2023/05/24 02:03:53;;;;;;;;;;;16.90;96.00;;;;;;5096748;28;20092;-62
2023/05/24 02:06:18;;;;;;;;;;;16.80;96.40;;;;;;5096783;28;20012;-64
2023/05/24 02:08:45;;;;;;;;;;;16.80;96.30;;;;;;5096730;28;19981;-63
2023/05/24 02:11:10;;;;;;;;;;;16.80;96.20;;;;;;5096931;28;19989;-63
2023/05/24 02:13:36;;;;;;;;;;;16.80;96.60;;;;;;5096743;28;19982;-63
2023/05/24 02:16:03;;;;;;;;;;;16.70;96.70;;;;;;5096621;28;19988;-62
2023/05/24 02:18:33;;;;;;;;;;;16.70;96.90;;;;;;5096571;28;20393;-63
2023/05/24 02:20:59;;;;;;;;;;;16.60;97.00;;;;;;5096501;28;19985;-63
2023/05/24 02:23:25;;;;;;;;;;;16.70;97.10;;;;;;5096526;28;20436;-64
2023/05/24 02:25:51;;;;;;;;;;;16.60;97.10;;;;;;5096283;28;20005;-64
2023/05/24 02:28:16;;;;;;;;;;;16.60;97.00;;;;;;5096421;28;19987;-64
2023/05/24 02:30:43;;;;;;;;;;;16.70;97.40;;;;;;5096345;28;20498;-62
2023/05/24 02:33:10;;;;;;;;;;;16.60;97.20;;;;;;5095359;28;20347;-63
2023/05/24 02:35:35;;;;;;;;;;;16.60;97.20;;;;;;5096490;28;20122;-62
2023/05/24 02:38:02;;;;;;;;;;;16.60;97.10;;;;;;5096155;28;20456;-64
2023/05/24 02:40:28;;;;;;;;;;;16.60;96.70;;;;;;5096029;28;20091;-63
2023/05/24 02:42:53;;;;;;;;;;;16.60;96.50;;;;;;5095882;28;20068;-64
2023/05/24 02:45:19;;;;;;;;;;;16.60;96.50;;;;;;5095917;28;20009;-64
2023/05/24 02:47:45;;;;;;;;;;;16.60;96.90;;;;;;5095778;28;19981;-64
2023/05/24 02:50:11;;;;;;;;;;;16.50;97.00;;;;;;5095900;28;20003;-63
2023/05/24 02:52:36;;;;;;;;;;;16.30;97.60;;;;;;5095915;28;19981;-64
2023/05/24 02:55:02;;;;;;;;;;;16.30;98.00;;;;;;5096151;28;19992;-63
2023/05/24 02:57:27;;;;;;;;;;;16.20;98.00;;;;;;5095770;28;19985;-63
2023/05/24 02:59:53;;;;;;;;;;;16.20;97.50;;;;;;5095759;28;20444;-64
2023/05/24 03:02:20;;;;;;;;;;;16.20;97.40;;;;;;5095518;28;20032;-63
2023/05/24 03:04:46;;;;;;;;;;;16.20;97.40;;;;;;5095527;28;20005;-62
2023/05/24 03:07:13;;;;;;;;;;;16.20;97.40;;;;;;5095701;28;20030;-63
2023/05/24 03:09:38;;;;;;;;;;;16.30;97.50;;;;;;5095577;28;20392;-62
2023/05/24 03:12:04;;;;;;;;;;;16.30;97.70;;;;;;5095402;28;19981;-63
2023/05/24 03:14:30;;;;;;;;;;;16.30;97.50;;;;;;5095571;28;19988;-64
2023/05/24 03:16:55;;;;;;;;;;;16.30;97.10;;;;;;5095298;28;19981;-63
2023/05/24 03:19:21;;;;;;;;;;;16.30;97.00;;;;;;5095283;28;20100;-63
2023/05/24 03:21:46;;;;;;;;;;;16.20;97.10;;;;;;5094158;28;19985;-63
2023/05/24 03:24:12;;;;;;;;;;;16.20;97.10;;;;;;5095243;28;19981;-64
2023/05/24 03:26:40;;;;;;;;;;;16.20;97.00;;;;;;5095163;28;20080;-63
2023/05/24 03:29:06;;;;;;;;;;;16.20;97.00;;;;;;5095201;28;20518;-63
2023/05/24 03:31:31;;;;;;;;;;;16.20;97.30;;;;;;5094957;28;20068;-63
2023/05/24 03:33:57;;;;;;;;;;;16.20;97.20;;;;;;5095082;28;20027;-63
2023/05/24 03:36:24;;;;;;;;;;;16.20;96.90;;;;;;5094970;28;19981;-63
2023/05/24 03:38:50;;;;;;;;;;;16.20;96.90;;;;;;5094977;28;20350;-64
2023/05/24 03:41:16;;;;;;;;;;;16.20;96.90;;;;;;5094989;28;19981;-63
2023/05/24 03:43:41;;;;;;;;;;;16.20;97.10;;;;;;5094788;28;20021;-63
2023/05/24 03:46:07;;;;;;;;;;;16.20;97.20;;;;;;5093720;28;20477;-63
2023/05/24 03:48:32;;;;;;;;;;;16.20;97.20;;;;;;5094856;28;20403;-64
2023/05/24 03:50:58;;;;;;;;;;;16.20;96.90;;;;;;5094683;28;20021;-64
2023/05/24 03:53:24;;;;;;;;;;;16.30;97.00;;;;;;5094674;28;20436;-63
2023/05/24 03:55:50;;;;;;;;;;;16.20;97.00;;;;;;5094603;28;19985;-62
2023/05/24 03:58:16;;;;;;;;;;;16.30;97.20;;;;;;5094601;28;19981;-63
2023/05/24 04:00:41;;;;;;;;;;;16.30;97.20;;;;;;5094666;28;19992;-63
2023/05/24 04:03:07;;;;;;;;;;;16.40;97.40;;;;;;5094560;28;20439;-62
2023/05/24 04:05:33;;;;;;;;;;;16.30;96.90;;;;;;5094463;28;20005;-63
2023/05/24 04:07:59;;;;;;;;;;;16.40;96.80;;;;;;5094637;28;19990;-63
2023/05/24 04:10:24;;;;;;;;;;;16.40;97.00;;;;;;5094524;28;19989;-62
2023/05/24 04:12:50;;;;;;;;;;;16.40;97.10;;;;;;5094358;28;20076;-63
2023/05/24 04:15:16;;;;;;;;;;;16.30;97.10;;;;;;5094034;28;20371;-62
2023/05/24 04:17:42;;;;;;;;;;;16.40;97.60;;;;;;5094400;28;19981;-63
2023/05/24 04:20:08;;;;;;;;;;;16.40;97.50;;;;;;5094318;28;19985;-62
2023/05/24 04:22:35;;;;;;;;;;;16.50;97.30;;;;;;5094161;28;19988;-62
2023/05/24 04:25:01;;;;;;;;;;;16.50;97.20;;;;;;5094369;28;20009;-62
2023/05/24 04:27:26;;;;;;;;;;;16.60;97.30;;;;;;5094537;28;20016;-63
2023/05/24 04:29:52;;;;;;;;;;;16.60;97.20;;;;;;5094141;28;20031;-64
2023/05/24 04:32:18;;;;;;;;;;;16.60;97.10;;;;;;5094096;28;19985;-62
2023/05/24 04:34:45;;;;;;;;;;;16.50;97.00;;;;;;5094291;28;20476;-63
2023/05/24 04:37:12;;;;;;;;;;;16.50;97.10;;;;;;5093939;28;19981;-62
2023/05/24 04:39:38;;;;;;;;;;;16.60;97.70;;;;;;5094204;28;19989;-63
2023/05/24 04:42:04;;;;;;;;;;;16.60;98.00;;;;;;5094049;28;19992;-64
2023/05/24 04:44:29;;;;;;;;;;;16.60;98.00;;;;;;5093263;28;20024;-62
2023/05/24 04:46:55;;;;;;;;;;;16.70;98.00;;;;;;5093855;28;19990;-64
2023/05/24 04:49:21;;;;;;;;;;;16.70;98.40;;;;;;5093967;28;20011;-62
2023/05/24 04:51:47;;;;;;;;;;;16.80;98.70;;;;;;5093897;28;20086;-63
2023/05/24 04:54:12;;;;;;;;;;;16.80;98.90;;;;;;5093722;28;19990;-63
2023/05/24 04:56:38;;;;;;;;;;;16.80;99.20;;;;;;5093105;28;20023;-62
2023/05/24 04:59:04;;;;;;;;;;;16.80;98.60;;;;;;5093309;28;19985;-63
2023/05/24 05:01:30;;;;;;;;;;;17.00;98.70;;;;;;5093499;28;19987;-63
2023/05/24 05:03:56;;;;;;;;;;;17.00;98.40;;;;;;5093694;28;19981;-62
2023/05/24 05:06:21;;;;;;;;;;;17.00;98.30;;;;;;5092859;28;20011;-63
2023/05/24 05:08:47;;;;;;;;;;;17.10;98.30;;;;;;5094056;28;20339;-62
2023/05/24 05:11:13;;;;;;;;;;;17.20;98.70;;;;;;5092658;28;19981;-63
2023/05/24 05:13:39;;;;;;;;;;;17.20;98.70;;;;;;5092544;28;20083;-62
2023/05/24 05:16:04;;;;;;;;;;;17.30;98.70;;;;;;5093239;28;20017;-65
2023/05/24 05:18:30;;;;;;;;;;;17.30;98.70;;;;;;5093911;28;19986;-64
2023/05/24 05:20:57;;;;;;;;;;;17.40;98.80;;;;;;5093198;28;19982;-65
2023/05/24 05:23:22;;;;;;;;;;;17.50;98.50;;;;;;5093551;28;19985;-66
2023/05/24 05:25:48;;;;;;;;;;;17.50;98.50;;;;;;5093176;28;20012;-65
2023/05/24 05:28:13;;;;;;;;;;;17.60;98.80;;;;;;5092589;28;19981;-63
2023/05/24 05:30:39;;;;;;;;;;;17.60;98.40;;;;;;5093435;28;20355;-64
2023/05/24 05:33:04;;;;;;;;;;;17.70;98.50;;;;;;5092633;28;19993;-64
2023/05/24 05:35:31;;;;;;;;;;;17.80;98.40;;;;;;5092728;28;19989;-66
2023/05/24 05:37:57;;;;;;;;;;;17.90;97.90;;;;;;5093219;28;19981;-65
2023/05/24 05:40:23;;;;;;;;;;;18.00;97.90;;;;;;5091824;28;19981;-64
2023/05/24 05:42:48;;;;;;;;;;;18.10;97.10;;;;;;5092400;28;19980;-64
2023/05/24 05:45:14;;;;;;;;;;;18.10;97.40;;;;;;5092241;28;20428;-67
2023/05/24 05:47:40;;;;;;;;;;;18.30;97.00;;;;;;5091940;28;19992;-66
2023/05/24 05:50:06;;;;;;;;;;;18.40;97.10;;;;;;5091075;28;19986;-63
2023/05/24 05:52:32;;;;;;;;;;;18.60;96.30;;;;;;5090985;28;20533;-64
2023/05/24 05:54:59;;;;;;;;;;;18.70;97.20;;;;;;5090878;28;19990;-64
2023/05/24 05:57:24;;;;;;;;;;;18.90;97.00;;;;;;5089943;28;19980;-64
2023/05/24 05:59:50;;;;;;;;;;;19.00;96.30;;;;;;5091425;28;20332;-63
2023/05/24 06:02:17;;;;;;;;;;;19.20;96.00;;;;;;5091929;28;19988;-64
2023/05/24 06:04:43;;;;;;;;;;;19.30;96.40;;;;;;5091739;28;20099;-65
2023/05/24 06:07:08;;;;;;;;;;;19.50;96.40;;;;;;5092386;28;20018;-65
2023/05/24 06:09:34;;;;;;;;;;;19.50;96.30;;;;;;5090063;28;20054;-66
2023/05/24 06:12:00;;;;;;;;;;;19.60;95.60;;;;;;5092503;28;19985;-67
2023/05/24 06:14:25;;;;;;;;;;;19.70;95.80;;;;;;5095770;28;20518;-64
2023/05/24 06:16:53;;;;;;;;;;;19.90;95.40;;;;;;5095931;28;19981;-64
2023/05/24 06:19:19;;;;;;;;;;;20.10;95.00;;;;;;5095222;28;19985;-64
2023/05/24 06:21:46;;;;;;;;;;;20.20;95.90;;;;;;5095534;28;19982;-65
2023/05/24 06:24:13;;;;;;;;;;;20.20;95.30;;;;;;5094295;28;19985;-63
2023/05/24 06:26:39;;;;;;;;;;;20.20;95.40;;;;;;5091312;28;20083;-63
2023/05/24 06:29:05;;;;;;;;;;;20.10;95.30;;;;;;5095320;28;20083;-64
2023/05/24 06:31:31;;;;;;;;;;;20.10;94.80;;;;;;5095073;28;20078;-66
2023/05/24 06:33:57;;;;;;;;;;;20.30;94.70;;;;;;5095097;28;20021;-64
2023/05/24 06:36:22;;;;;;;;;;;20.30;95.00;;;;;;5093983;28;19988;-64
2023/05/24 06:38:48;;;;;;;;;;;20.40;94.80;;;;;;5093733;28;19992;-63
2023/05/24 06:41:14;;;;;;;;;;;20.60;94.80;;;;;;5094663;28;20021;-64
2023/05/24 06:43:39;;;;;;;;;;;20.60;94.90;;;;;;5092871;28;20505;-64
2023/05/24 06:46:05;;;;;;;;;;;20.80;94.40;;;;;;5091137;28;20012;-66
2023/05/24 06:48:31;;;;;;;;;;;21.00;94.30;;;;;;5093309;28;20038;-64
2023/05/24 06:50:57;;;;;;;;;;;21.10;93.90;;;;;;5090891;28;19989;-64
2023/05/24 06:53:23;;;;;;;;;;;21.30;93.70;;;;;;5093298;28;19991;-60
2023/05/24 06:55:48;;;;;;;;;;;21.50;94.20;;;;;;5093246;28;19982;-62
2023/05/24 06:58:14;;;;;;;;;;;21.50;93.80;;;;;;5091657;28;19993;-64
2023/05/24 07:00:41;;;;;;;;;;;21.20;94.00;;;;;;5084294;28;19988;-67
2023/05/24 07:03:07;;;;;;;;;;;21.40;94.80;;;;;;5085270;28;20353;-64
2023/05/24 07:05:33;;;;;;;;;;;21.50;94.50;;;;;;5091621;28;20350;-66
2023/05/24 07:07:59;;;;;;;;;;;21.80;94.40;;;;;;5091169;28;20019;-64
2023/05/24 07:10:29;;;;;;;;;;;22.00;93.50;;;;;;5091433;28;20024;-64
2023/05/24 07:12:55;;;;;;;;;;;22.10;94.90;;;;;;5095124;28;20043;-65
2023/05/24 07:15:20;;;;;;;;;;;22.30;92.60;;;;;;5107309;28;20455;-66
2023/05/24 07:17:47;;;;;;;;;;;22.50;93.00;;;;;;5094088;28;19989;-67
2023/05/24 07:20:12;;;;;;;;;;;22.60;92.10;;;;;;5092825;28;20028;-65
2023/05/24 07:22:38;;;;;;;;;;;22.90;91.50;;;;;;5085441;28;20432;-67
2023/05/24 07:25:04;;;;;;;;;;;24.00;91.00;;;;;;5073760;28;20016;-64
2023/05/24 07:27:30;;;;;;;;;;;25.70;85.90;;;;;;5091969;28;19985;-64
2023/05/24 07:29:56;;;;;;;;;;;25.90;80.80;;;;;;5089430;28;19988;-66
2023/05/24 07:32:21;;;;;;;;;;;25.30;80.10;;;;;;5089338;28;20036;-67
2023/05/24 07:34:47;;;;;;;;;;;25.20;80.70;;;;;;5092030;28;20035;-68
2023/05/24 07:37:12;;;;;;;;;;;25.10;80.20;;;;;;5092637;28;19997;-64
2023/05/24 07:39:38;;;;;;;;;;;24.80;80.70;;;;;;5088434;28;19981;-63
2023/05/24 07:42:04;;;;;;;;;;;24.90;85.20;;;;;;5077040;28;19989;-66
2023/05/24 07:44:29;;;;;;;;;;;24.80;83.20;;;;;;5085299;28;20109;-66
2023/05/24 07:46:55;;;;;;;;;;;25.20;85.20;;;;;;5092581;28;20336;-63
2023/05/24 07:49:22;;;;;;;;;;;27.20;81.20;;;;;;5091504;28;19991;-63
2023/05/24 07:51:48;;;;;;;;;;;29.10;72.10;;;;;;5073720;28;20402;-62
2023/05/24 07:54:13;;;;;;;;;;;30.20;70.50;;;;;;5072607;28;20016;-64
2023/05/24 07:56:40;;;;;;;;;;;31.30;62.80;;;;;;5073721;28;20435;-65
2023/05/24 07:59:06;;;;;;;;;;;32.10;61.80;;;;;;5072834;28;20084;-64
2023/05/24 08:01:35;;;;;;;;;;;33.00;57.10;;;;;;5094127;28;20083;-64
2023/05/24 08:04:02;;;;;;;;;;;33.40;55.20;;;;;;5094334;28;19981;-64
2023/05/24 08:06:28;;;;;;;;;;;33.70;56.10;;;;;;5090714;28;20009;-66
2023/05/24 08:08:55;;;;;;;;;;;34.50;53.90;;;;;;5091015;28;19981;-63
2023/05/24 08:11:21;;;;;;;;;;;34.80;51.30;;;;;;5091381;28;19989;-62
2023/05/24 08:13:46;;;;;;;;;;;34.80;49.80;;;;;;5092108;28;20015;-61
2023/05/24 08:16:12;;;;;;;;;;;35.00;49.80;;;;;;5092484;28;20428;-63
2023/05/24 08:18:37;;;;;;;;;;;34.70;48.30;;;;;;5077473;28;20038;-65
2023/05/24 08:21:03;;;;;;;;;;;34.70;47.70;;;;;;5091952;28;20000;-65
2023/05/24 08:23:29;;;;;;;;;;;34.30;49.40;;;;;;5093680;28;19981;-68
2023/05/24 08:25:58;;;;;;;;;;;34.80;49.20;;;;;;5080514;28;20009;-66
2023/05/24 08:28:23;;;;;;;;;;;35.10;50.00;;;;;;5081043;28;20528;-68
2023/05/24 08:30:49;;;;;;;;;;;35.70;49.30;;;;;;5089511;28;20059;-67
2023/05/24 08:33:15;;;;;;;;;;;35.70;46.40;;;;;;5090074;28;20363;-65
2023/05/24 08:35:41;;;;;;;;;;;34.70;48.30;;;;;;5088275;28;20072;-64
2023/05/24 08:38:06;;;;;;;;;;;34.90;48.60;;;;;;5092711;28;19989;-64
2023/05/24 08:40:32;;;;;;;;;;;34.20;49.60;;;;;;5090852;28;19985;-63
2023/05/24 08:42:58;;;;;;;;;;;33.50;50.30;;;;;;5087845;28;19985;-64
2023/05/24 08:45:32;;;;;;;;;;;33.40;50.60;;;;;;5083108;28;20013;-69
2023/05/24 08:47:58;;;;;;;;;;;33.30;50.00;;;;;;5083097;28;19988;-65
2023/05/24 08:50:31;;;;;;;;;;;32.70;50.00;;;;;;5087720;28;20038;-64
2023/05/24 08:52:58;;;;;;;;;;;32.50;53.50;;;;;;5090406;28;19985;-64
2023/05/24 08:55:37;;;;;;;;;;;32.00;51.40;;;;;;5088709;28;19989;-66
2023/05/24 08:58:04;;;;;;;;;;;31.20;52.50;;;;;;5076348;28;20046;-66
2023/05/24 09:00:38;;;;;;;;;;;30.50;53.20;;;;;;5076031;28;20368;-63
2023/05/24 09:03:05;;;;;;;;;;;29.90;54.40;;;;;;5087506;28;19992;-65
2023/05/24 09:05:41;;;;;;;;;;;30.70;54.20;;;;;;5083951;28;20465;-67
2023/05/24 09:08:08;;;;;;;;;;;31.60;52.20;;;;;;5082068;28;20000;-64
2023/05/24 09:10:43;;;;;;;;;;;31.40;52.50;;;;;;5090048;28;19991;-64
2023/05/24 09:13:11;;;;;;;;;;;32.30;55.00;;;;;;5082696;28;20377;-67
2023/05/24 09:15:49;;;;;;;;;;;32.50;52.90;;;;;;5091563;28;19997;-67
2023/05/24 09:18:16;;;;;;;;;;;31.70;51.90;;;;;;5088258;28;20088;-63
2023/05/24 09:20:50;;;;;;;;;;;31.10;51.20;;;;;;5085631;28;20445;-62
2023/05/24 09:23:16;;;;;;;;;;;31.00;52.70;;;;;;5090716;28;19991;-62
2023/05/24 09:25:58;;;;;;;;;;;31.80;53.20;;;;;;5088627;28;20010;-64
2023/05/24 09:28:24;;;;;;;;;;;31.50;52.70;;;;;;5092650;28;20098;-69
2023/05/24 09:31:08;;;;;;;;;;;30.90;54.30;;;;;;5101641;28;20083;-64
2023/05/24 09:33:34;;;;;;;;;;;30.30;54.00;;;;;;5099734;28;20018;-65
2023/05/24 09:36:02;;;;;;;;;;;29.60;54.50;;;;;;5088833;28;19997;-62
2023/05/24 09:38:28;;;;;;;;;;;29.40;55.80;;;;;;5081633;28;20125;-62
2023/05/24 09:41:10;;;;;;;;;;;29.20;56.10;;;;;;5083293;28;19985;-68
2023/05/24 09:43:45;;;;;;;;;;;28.90;56.50;;;;;;5078288;28;20485;-63
2023/05/24 09:46:15;;;;;;;;;;;28.70;56.70;;;;;;5079775;28;20004;-66
2023/05/24 09:48:54;;;;;;;;;;;29.10;57.30;;;;;;5077247;28;19990;-62
2023/05/24 09:51:20;;;;;;;;;;;30.20;57.90;;;;;;5077400;28;19985;-68
2023/05/24 09:53:47;;;;;;;;;;;31.60;56.30;;;;;;5077365;28;20311;-66
2023/05/24 09:56:32;;;;;;;;;;;32.60;53.90;;;;;;5080081;28;19985;-63
2023/05/24 09:58:58;;;;;;;;;;;32.60;52.20;;;;;;5083163;28;19993;-65
2023/05/24 10:01:25;;;;;;;;;;;32.60;53.20;;;;;;5072986;28;19996;-68
2023/05/24 10:03:54;;;;;;;;;;;33.10;51.60;;;;;;5071688;28;19989;-67
2023/05/24 10:06:20;;;;;;;;;;;33.60;52.70;;;;;;5090399;28;20009;-66
2023/05/24 10:08:47;;;;;;;;;;;33.20;51.40;;;;;;5086107;28;20456;-65
2023/05/24 10:11:16;;;;;;;;;;;32.50;51.40;;;;;;5082688;28;19996;-66
2023/05/24 10:13:43;;;;;;;;;;;31.90;51.70;;;;;;5079108;28;19985;-68
2023/05/24 10:16:09;;;;;;;;;;;31.80;53.50;;;;;;5082362;28;20556;-71
2023/05/24 10:18:34;;;;;;;;;;;31.90;52.60;;;;;;5083110;28;20364;-63
2023/05/24 10:21:31;;;;;;;;;;;32.50;52.40;;;;;;5084149;28;20059;-66
2023/05/24 10:24:05;;;;;;;;;;;33.10;52.50;;;;;;5078860;28;20039;-66
2023/05/24 10:26:33;;;;;;;;;;;32.60;51.50;;;;;;5082792;28;20491;-65
2023/05/24 10:29:05;;;;;;;;;;;32.90;50.70;;;;;;5084554;28;20056;-62
2023/05/24 10:31:31;;;;;;;;;;;33.40;50.60;;;;;;5079881;28;20455;-64
2023/05/24 10:33:57;;;;;;;;;;;33.70;50.70;;;;;;5092033;28;19985;-63
2023/05/24 10:36:25;;;;;;;;;;;33.30;50.00;;;;;;5080784;28;20025;-62
2023/05/24 10:38:51;;;;;;;;;;;33.00;51.00;;;;;;5091283;28;20079;-64
2023/05/24 10:41:17;;;;;;;;;;;33.10;49.70;;;;;;5085555;28;19985;-64
2023/05/24 10:43:45;;;;;;;;;;;33.10;50.50;;;;;;5083973;28;20055;-64
2023/05/24 10:46:13;;;;;;;;;;;33.60;50.70;;;;;;5076291;28;20048;-64
2023/05/24 10:48:39;;;;;;;;;;;33.60;49.50;;;;;;5075618;28;19994;-66
2023/05/24 10:51:35;;;;;;;;;;;33.30;49.20;;;;;;5089464;28;20379;-65
2023/05/24 10:54:11;;;;;;;;;;;33.40;49.60;;;;;;5072399;28;20428;-65
2023/05/24 10:56:41;;;;;;;;;;;33.60;48.50;;;;;;5079167;28;19987;-66
2023/05/24 10:59:07;;;;;;;;;;;33.50;49.80;;;;;;5084357;28;19989;-64
2023/05/24 11:01:33;;;;;;;;;;;33.70;50.50;;;;;;5085542;28;20088;-64
2023/05/24 11:04:05;;;;;;;;;;;33.20;47.30;;;;;;5080192;28;20025;-67
2023/05/24 11:06:47;;;;;;;;;;;32.80;48.40;;;;;;5077476;28;20400;-62
2023/05/24 11:09:13;;;;;;;;;;;33.30;49.50;;;;;;5079816;28;19989;-63
2023/05/24 11:11:43;;;;;;;;;;;33.50;48.80;;;;;;5093828;28;19989;-66
2023/05/24 11:14:09;;;;;;;;;;;33.90;48.70;;;;;;5085223;28;19995;-63
2023/05/24 11:16:36;;;;;;;;;;;34.00;48.70;;;;;;5081685;28;20422;-66
2023/05/24 11:19:12;;;;;;;;;;;34.10;47.00;;;;;;5077597;28;20595;-64
2023/05/24 11:21:38;;;;;;;;;;;34.20;49.70;;;;;;5078582;28;19985;-64
2023/05/24 11:24:04;;;;;;;;;;;34.30;48.50;;;;;;5092553;28;20280;-63
2023/05/24 11:26:30;;;;;;;;;;;34.30;49.00;;;;;;5081118;28;20104;-63
2023/05/24 11:28:56;;;;;;;;;;;33.90;47.50;;;;;;5074557;28;20036;-62
2023/05/24 11:31:25;;;;;;;;;;;33.80;50.30;;;;;;5084444;28;20356;-62
2023/05/24 11:33:51;;;;;;;;;;;33.90;46.40;;;;;;5088782;28;20072;-62
2023/05/24 11:36:18;;;;;;;;;;;33.70;49.60;;;;;;5090137;28;20579;-63
2023/05/24 11:38:45;;;;;;;;;;;33.90;49.00;;;;;;5088309;28;19991;-63
2023/05/24 11:41:10;;;;;;;;;;;34.10;49.80;;;;;;5088743;28;19981;-63
2023/05/24 11:43:36;;;;;;;;;;;34.30;47.80;;;;;;5089534;28;20079;-63
2023/05/24 11:46:02;;;;;;;;;;;34.60;49.20;;;;;;5085793;28;20078;-62
2023/05/24 11:48:28;;;;;;;;;;;34.70;48.40;;;;;;5091084;28;19992;-62
2023/05/24 11:50:54;;;;;;;;;;;34.50;46.90;;;;;;5092675;28;20084;-62
2023/05/24 11:53:20;;;;;;;;;;;34.30;48.50;;;;;;5094041;28;20414;-62
2023/05/24 11:55:47;;;;;;;;;;;34.30;47.70;;;;;;5094623;28;20075;-61
2023/05/24 11:58:15;;;;;;;;;;;34.50;47.60;;;;;;5092572;28;19981;-62
2023/05/24 12:00:42;;;;;;;;;;;34.70;46.70;;;;;;5094181;28;19986;-62
2023/05/24 12:03:08;;;;;;;;;;;34.50;45.50;;;;;;5094340;28;19989;-62
2023/05/24 12:05:35;;;;;;;;;;;34.50;45.70;;;;;;5090056;28;20048;-62
2023/05/24 12:08:03;;;;;;;;;;;34.40;46.90;;;;;;5073628;28;19989;-62
2023/05/24 12:10:29;;;;;;;;;;;34.30;45.10;;;;;;5073133;28;20050;-63
2023/05/24 12:12:55;;;;;;;;;;;34.30;47.40;;;;;;5072356;28;20457;-62
2023/05/24 12:15:21;;;;;;;;;;;34.40;46.50;;;;;;5069484;28;19981;-61
2023/05/24 12:17:50;;;;;;;;;;;34.50;45.80;;;;;;5068535;28;19982;-62
2023/05/24 12:20:17;;;;;;;;;;;34.60;44.80;;;;;;5069258;28;20035;-62
2023/05/24 12:22:54;;;;;;;;;;;34.10;45.30;;;;;;5069565;28;19986;-62
2023/05/24 12:25:21;;;;;;;;;;;33.90;47.70;;;;;;5068959;28;20472;-62
2023/05/24 12:27:51;;;;;;;;;;;34.10;46.40;;;;;;5069150;28;19992;-61
2023/05/24 12:30:20;;;;;;;;;;;34.00;46.50;;;;;;5070021;28;20035;-62
2023/05/24 12:32:47;;;;;;;;;;;34.20;46.20;;;;;;5070960;28;19989;-64
2023/05/24 12:35:12;;;;;;;;;;;34.20;48.70;;;;;;5072182;28;20024;-65
2023/05/24 12:37:38;;;;;;;;;;;34.20;48.00;;;;;;5072153;28;20030;-62
2023/05/24 12:40:20;;;;;;;;;;;34.20;46.70;;;;;;5072756;28;19989;-64
2023/05/24 12:42:50;;;;;;;;;;;34.00;46.50;;;;;;5073725;28;20048;-64
2023/05/24 12:45:21;;;;;;;;;;;33.70;46.30;;;;;;5073746;28;20032;-62
2023/05/24 12:47:56;;;;;;;;;;;33.70;46.30;;;;;;5073986;28;20008;-65
2023/05/24 12:50:22;;;;;;;;;;;33.80;47.30;;;;;;5073693;28;20401;-63
2023/05/24 12:52:51;;;;;;;;;;;34.00;45.50;;;;;;5073611;28;19993;-64
2023/05/24 12:55:21;;;;;;;;;;;33.90;45.80;;;;;;5073801;28;20363;-62
2023/05/24 12:57:51;;;;;;;;;;;33.80;46.00;;;;;;5073424;28;19982;-64
2023/05/24 13:00:18;;;;;;;;;;;33.90;45.90;;;;;;5073801;28;20127;-63
2023/05/24 13:02:43;;;;;;;;;;;33.90;46.00;;;;;;5073710;28;19981;-62
2023/05/24 13:05:09;;;;;;;;;;;33.90;45.80;;;;;;5073511;28;20006;-64
2023/05/24 13:07:35;;;;;;;;;;;33.60;44.20;;;;;;5073473;28;20057;-62
2023/05/24 13:10:01;;;;;;;;;;;33.10;45.80;;;;;;5073501;28;19986;-64
2023/05/24 13:12:26;;;;;;;;;;;32.80;45.40;;;;;;5073552;28;19992;-62
2023/05/24 13:14:52;;;;;;;;;;;32.60;45.60;;;;;;5073445;28;20394;-62
2023/05/24 13:17:18;;;;;;;;;;;32.80;47.90;;;;;;5074596;28;19997;-64
2023/05/24 13:19:43;;;;;;;;;;;33.10;47.90;;;;;;5077747;28;20084;-62
2023/05/24 13:22:09;;;;;;;;;;;33.40;45.30;;;;;;5077701;28;20440;-63
2023/05/24 13:24:35;;;;;;;;;;;33.40;47.00;;;;;;5077169;28;20432;-62
2023/05/24 13:27:02;;;;;;;;;;;33.30;47.40;;;;;;5077144;28;19988;-65
2023/05/24 13:29:28;;;;;;;;;;;33.30;47.40;;;;;;5077581;28;20218;-61
2023/05/24 13:31:55;;;;;;;;;;;33.50;46.60;;;;;;5077221;28;19988;-62
2023/05/24 13:34:23;;;;;;;;;;;33.40;46.10;;;;;;5077480;28;20028;-62
2023/05/24 13:36:48;;;;;;;;;;;33.10;45.40;;;;;;5077464;28;19986;-62
2023/05/24 13:39:14;;;;;;;;;;;33.10;44.90;;;;;;5076903;28;20115;-64
2023/05/24 13:41:40;;;;;;;;;;;33.30;46.80;;;;;;5077096;28;20039;-62
2023/05/24 13:44:06;;;;;;;;;;;33.70;44.70;;;;;;5076854;28;20028;-64
2023/05/24 13:46:32;;;;;;;;;;;33.90;46.50;;;;;;5076767;28;20005;-64
2023/05/24 13:48:58;;;;;;;;;;;34.00;47.80;;;;;;5077156;28;20084;-61
2023/05/24 13:51:25;;;;;;;;;;;33.90;45.50;;;;;;5076959;28;20043;-61
2023/05/24 13:53:51;;;;;;;;;;;33.90;44.60;;;;;;5076579;28;20474;-62
2023/05/24 13:56:17;;;;;;;;;;;34.00;44.20;;;;;;5076969;28;19985;-63
2023/05/24 13:58:43;;;;;;;;;;;34.00;44.90;;;;;;5076783;28;19981;-63
2023/05/24 14:01:09;;;;;;;;;;;33.90;45.40;;;;;;5076929;28;19985;-62
2023/05/24 14:03:35;;;;;;;;;;;34.00;45.10;;;;;;5076536;28;20007;-62
2023/05/24 14:06:00;;;;;;;;;;;34.00;46.60;;;;;;5076513;28;20009;-64
2023/05/24 14:08:26;;;;;;;;;;;34.00;44.50;;;;;;5076378;28;19988;-64
2023/05/24 14:10:52;;;;;;;;;;;33.70;44.70;;;;;;5076441;28;19981;-63
2023/05/24 14:13:18;;;;;;;;;;;33.40;44.90;;;;;;5076421;28;20013;-62
2023/05/24 14:15:45;;;;;;;;;;;33.30;45.80;;;;;;5076376;28;19992;-64